Time;durP1;ratioP1;P1;durP2;ratioP2;P2;SDS_P1;SDS_P2;PMS_P1;PMS_P2;Temp;Humidity;BMP_temperature;BMP_pressure;BME280_temperature;BME280_humidity;BME280_pressure;Samples;Min_cycle;Max_cycle;Signal;HPM_P1;HPM_P2
2021/09/15 07:15:37;;;;;;;12.13;9.52;;;;;;;;;;5165610;27;20367;-57
2021/09/15 07:18:05;;;;;;;11.93;10.10;;;;;;;;;;5128472;27;20408;-54
2021/09/15 07:20:34;;;;;;;12.30;9.57;;;;;;;;;;5129286;27;20379;-57
2021/09/15 07:23:00;;;;;;;11.27;9.40;;;;;;;;;;5148292;27;20398;-59
2021/09/15 07:25:26;;;;;;;11.95;9.27;;;;;;;;;;5121602;27;20386;-60
2021/09/15 07:27:55;;;;;;;12.18;9.40;;;;;;;;;;5134496;27;20848;-60
2021/09/15 07:30:21;;;;;;;11.43;9.07;;;;;;;;;;5127864;27;20741;-61
2021/09/15 07:32:47;;;;;;;12.30;9.27;;;;;;;;;;5127002;27;20434;-60
2021/09/15 07:35:14;;;;;;;11.65;9.35;;;;;;;;;;5128171;27;20413;-60
2021/09/15 07:37:42;;;;;;;10.68;9.00;;;;;;;;;;5147603;27;20943;-59
2021/09/15 07:40:12;;;;;;;11.00;8.30;;;;;;;;;;5128849;27;20371;-60
2021/09/15 07:42:38;;;;;;;10.55;8.93;;;;;;;;;;5128254;27;20402;-56
2021/09/15 07:45:04;;;;;;;11.10;8.77;;;;;;;;;;5146630;27;20378;-59
2021/09/15 07:47:30;;;;;;;11.13;8.45;;;;;;;;;;5128592;27;20378;-58
2021/09/15 07:49:57;;;;;;;12.15;8.88;;;;;;;;;;5147522;27;20396;-60
2021/09/15 07:52:23;;;;;;;11.25;8.82;;;;;;;;;;5147229;27;20441;-59
2021/09/15 07:54:51;;;;;;;10.00;8.45;;;;;;;;;;5146460;27;20406;-59
2021/09/15 07:57:17;;;;;;;10.55;8.55;;;;;;;;;;5114510;27;20803;-59
2021/09/15 07:59:46;;;;;;;9.93;8.10;;;;;;;;;;5127510;27;20911;-57
2021/09/15 08:02:12;;;;;;;10.25;8.05;;;;;;;;;;5127575;27;20378;-57
2021/09/15 08:04:38;;;;;;;9.32;7.70;;;;;;;;;;5128129;27;20884;-59
2021/09/15 08:07:07;;;;;;;9.50;7.75;;;;;;;;;;5128442;27;20386;-60
2021/09/15 08:09:34;;;;;;;10.15;8.13;;;;;;;;;;5128509;27;20434;-60
2021/09/15 08:12:01;;;;;;;9.35;7.90;;;;;;;;;;5146613;27;20720;-60
2021/09/15 08:14:27;;;;;;;9.10;7.67;;;;;;;;;;5145551;27;20738;-62
2021/09/15 08:16:55;;;;;;;10.03;7.90;;;;;;;;;;5144016;27;20365;-62
2021/09/15 08:19:22;;;;;;;10.88;7.75;;;;;;;;;;5125968;27;20447;-65
2021/09/15 08:21:49;;;;;;;9.93;7.50;;;;;;;;;;5145231;27;20370;-62
2021/09/15 08:24:15;;;;;;;10.18;8.02;;;;;;;;;;5138049;27;20468;-62
2021/09/15 08:26:41;;;;;;;9.88;7.70;;;;;;;;;;5132998;27;20841;-65
2021/09/15 08:29:08;;;;;;;9.05;7.78;;;;;;;;;;5132133;27;20664;-63
2021/09/15 08:31:34;;;;;;;9.35;7.38;;;;;;;;;;5112925;27;20444;-64
2021/09/15 08:34:00;;;;;;;9.47;7.80;;;;;;;;;;5131629;27;20727;-60
2021/09/15 08:36:26;;;;;;;9.23;7.73;;;;;;;;;;5131904;27;20366;-65
2021/09/15 08:38:52;;;;;;;9.10;7.75;;;;;;;;;;5142952;27;20369;-65
2021/09/15 08:41:18;;;;;;;8.93;7.10;;;;;;;;;;5115505;27;20427;-60
2021/09/15 08:43:44;;;;;;;9.38;7.10;;;;;;;;;;5131668;27;20375;-59
2021/09/15 08:46:12;;;;;;;8.07;6.90;;;;;;;;;;5131590;27;20405;-60
2021/09/15 08:48:39;;;;;;;7.97;6.63;;;;;;;;;;5132388;27;20375;-62
2021/09/15 08:51:10;;;;;;;7.80;6.33;;;;;;;;;;5130805;27;20486;-61
2021/09/15 08:53:37;;;;;;;8.50;6.60;;;;;;;;;;5113127;27;20394;-61
2021/09/15 08:56:03;;;;;;;7.75;6.35;;;;;;;;;;5112755;27;20410;-61
2021/09/15 08:58:30;;;;;;;8.32;6.82;;;;;;;;;;5130324;27;20458;-62
2021/09/15 09:01:17;;;;;;;7.43;6.40;;;;;;;;;;5131540;27;20374;-71
2021/09/15 09:03:44;;;;;;;8.50;6.82;;;;;;;;;;5120040;27;20706;-61
2021/09/15 09:06:15;;;;;;;7.85;6.25;;;;;;;;;;5112562;27;20387;-59
2021/09/15 09:08:42;;;;;;;8.65;6.72;;;;;;;;;;5131677;27;20954;-60
2021/09/15 09:11:09;;;;;;;6.93;5.90;;;;;;;;;;5111968;27;20794;-60
2021/09/15 09:13:36;;;;;;;7.85;6.20;;;;;;;;;;5130516;27;20432;-60
2021/09/15 09:16:03;;;;;;;8.23;6.40;;;;;;;;;;5112191;27;20417;-60
2021/09/15 09:18:29;;;;;;;7.65;6.30;;;;;;;;;;5131138;27;20367;-60
2021/09/15 09:20:55;;;;;;;7.65;6.30;;;;;;;;;;5131148;27;20370;-60
2021/09/15 09:23:21;;;;;;;7.57;6.35;;;;;;;;;;5130522;27;20374;-60
2021/09/15 09:25:58;;;;;;;8.05;6.57;;;;;;;;;;5124377;27;20504;-62
2021/09/15 09:28:24;;;;;;;8.75;6.55;;;;;;;;;;5130408;27;20367;-61
2021/09/15 09:30:52;;;;;;;7.75;6.38;;;;;;;;;;5130564;27;20378;-59
2021/09/15 09:33:18;;;;;;;8.32;6.53;;;;;;;;;;5130790;27;20446;-59
2021/09/15 09:35:49;;;;;;;6.75;5.70;;;;;;;;;;5118881;27;20457;-59
2021/09/15 09:38:19;;;;;;;6.60;5.33;;;;;;;;;;5127408;27;20395;-59
2021/09/15 09:40:54;;;;;;;7.30;6.15;;;;;;;;;;5130498;27;20367;-59
2021/09/15 09:43:20;;;;;;;6.70;5.82;;;;;;;;;;5126415;27;20494;-58
2021/09/15 09:45:47;;;;;;;7.05;5.95;;;;;;;;;;5109534;27;20478;-57
2021/09/15 09:48:27;;;;;;;6.67;5.70;;;;;;;;;;5111240;27;20386;-57
2021/09/15 09:50:53;;;;;;;6.37;5.70;;;;;;;;;;5129974;27;20363;-58
2021/09/15 09:53:20;;;;;;;7.73;6.70;;;;;;;;;;5138639;27;20391;-57
2021/09/15 09:55:49;;;;;;;6.55;5.82;;;;;;;;;;5133560;27;20378;-55
2021/09/15 09:58:17;;;;;;;8.38;6.40;;;;;;;;;;5130351;27;20864;-56
2021/09/15 10:00:44;;;;;;;7.27;6.37;;;;;;;;;;5111518;27;20379;-58
2021/09/15 10:03:10;;;;;;;7.57;6.07;;;;;;;;;;5120419;27;20474;-57
2021/09/15 10:05:38;;;;;;;7.43;6.43;;;;;;;;;;5091541;27;20864;-58
2021/09/15 10:08:07;;;;;;;7.07;6.38;;;;;;;;;;5137839;27;20426;-59
2021/09/15 10:10:33;;;;;;;8.25;6.90;;;;;;;;;;5109637;27;20375;-56
2021/09/15 10:12:59;;;;;;;7.47;6.68;;;;;;;;;;5118595;27;20387;-59
2021/09/15 10:15:25;;;;;;;8.68;6.40;;;;;;;;;;5128605;27;20426;-59
2021/09/15 10:17:52;;;;;;;7.80;6.55;;;;;;;;;;5129468;27;20370;-62
2021/09/15 10:20:26;;;;;;;7.75;6.90;;;;;;;;;;5110138;27;20490;-58
2021/09/15 10:22:52;;;;;;;8.45;6.75;;;;;;;;;;5109468;27;20371;-59
2021/09/15 10:25:21;;;;;;;8.10;6.45;;;;;;;;;;5121433;27;20488;-58
2021/09/15 10:28:01;;;;;;;8.98;7.25;;;;;;;;;;5110259;27;20468;-59
2021/09/15 10:30:39;;;;;;;8.60;7.07;;;;;;;;;;5129358;27;20374;-57
2021/09/15 10:33:05;;;;;;;8.55;7.22;;;;;;;;;;5128260;27;20387;-56
2021/09/15 10:35:45;;;;;;;8.60;6.78;;;;;;;;;;5110289;27;20421;-58
2021/09/15 10:38:11;;;;;;;8.70;7.28;;;;;;;;;;5113595;27;20400;-59
2021/09/15 10:40:38;;;;;;;9.13;7.18;;;;;;;;;;5139856;27;20411;-58
2021/09/15 10:43:05;;;;;;;8.68;7.15;;;;;;;;;;5110030;28;20394;-58
2021/09/15 10:45:34;;;;;;;8.52;7.18;;;;;;;;;;5110263;27;20453;-57
2021/09/15 10:48:13;;;;;;;8.60;7.35;;;;;;;;;;5109374;27;20381;-60
2021/09/15 10:50:42;;;;;;;9.07;7.20;;;;;;;;;;5109456;27;20422;-59
2021/09/15 10:53:08;;;;;;;8.65;7.00;;;;;;;;;;5128546;27;20445;-57
2021/09/15 10:55:37;;;;;;;9.43;7.57;;;;;;;;;;5121895;27;20415;-58
2021/09/15 10:58:13;;;;;;;8.50;7.57;;;;;;;;;;5128410;27;20383;-62
2021/09/15 11:00:48;;;;;;;9.33;7.60;;;;;;;;;;5128231;27;20515;-60
2021/09/15 11:03:33;;;;;;;11.75;7.93;;;;;;;;;;5097661;27;20390;-60
2021/09/15 11:06:08;;;;;;;9.95;7.50;;;;;;;;;;5127361;27;20470;-60
2021/09/15 11:08:36;;;;;;;9.32;7.50;;;;;;;;;;5128688;27;20374;-59
2021/09/15 11:11:03;;;;;;;11.13;8.00;;;;;;;;;;5121176;27;20428;-59
2021/09/15 11:13:31;;;;;;;9.37;7.50;;;;;;;;;;5107590;28;20411;-59
2021/09/15 11:16:17;;;;;;;10.20;7.68;;;;;;;;;;5124603;27;20443;-58
2021/09/15 11:18:53;;;;;;;10.40;8.18;;;;;;;;;;5126859;28;20456;-59
2021/09/15 11:21:19;;;;;;;10.93;8.02;;;;;;;;;;5109212;28;20470;-58
2021/09/15 11:23:46;;;;;;;10.05;8.38;;;;;;;;;;5106203;28;20404;-59
2021/09/15 11:26:14;;;;;;;9.85;8.18;;;;;;;;;;5124774;27;20444;-59
2021/09/15 11:28:46;;;;;;;9.63;7.73;;;;;;;;;;5127797;28;20390;-59
2021/09/15 11:31:12;;;;;;;10.65;7.88;;;;;;;;;;5127824;28;20490;-58
2021/09/15 11:33:39;;;;;;;9.45;8.13;;;;;;;;;;5127955;27;20818;-60
2021/09/15 11:36:08;;;;;;;9.65;7.72;;;;;;;;;;5127216;28;20383;-59
2021/09/15 11:38:36;;;;;;;10.98;8.50;;;;;;;;;;5128139;28;20371;-58
2021/09/15 11:41:04;;;;;;;9.50;8.02;;;;;;;;;;5127858;27;20438;-58
2021/09/15 11:43:31;;;;;;;12.13;8.80;;;;;;;;;;5128268;28;20414;-58
2021/09/15 11:45:57;;;;;;;9.80;8.30;;;;;;;;;;5127301;28;20458;-59
2021/09/15 11:48:29;;;;;;;10.73;8.82;;;;;;;;;;5127788;28;20373;-59
2021/09/15 11:50:56;;;;;;;11.80;8.80;;;;;;;;;;5127455;28;20658;-59
2021/09/15 11:53:24;;;;;;;10.00;8.27;;;;;;;;;;5127922;28;20374;-59
2021/09/15 11:56:02;;;;;;;10.77;8.20;;;;;;;;;;5127739;28;20477;-58
2021/09/15 11:58:28;;;;;;;10.07;8.23;;;;;;;;;;5114572;28;20450;-59
2021/09/15 12:00:57;;;;;;;9.57;8.00;;;;;;;;;;5110105;27;20473;-59
2021/09/15 12:03:28;;;;;;;9.32;7.93;;;;;;;;;;5131626;27;21089;-58
2021/09/15 12:05:55;;;;;;;11.85;8.55;;;;;;;;;;5129958;27;20383;-59
2021/09/15 12:08:21;;;;;;;10.05;8.02;;;;;;;;;;5131118;27;20362;-59
2021/09/15 12:10:48;;;;;;;10.77;8.50;;;;;;;;;;5131291;27;20400;-58
2021/09/15 12:13:14;;;;;;;11.88;8.45;;;;;;;;;;5131611;27;20365;-60
2021/09/15 12:15:47;;;;;;;10.05;7.78;;;;;;;;;;5130840;27;20469;-59
2021/09/15 12:18:13;;;;;;;11.13;8.60;;;;;;;;;;5131001;27;20450;-60
2021/09/15 12:20:39;;;;;;;10.25;8.00;;;;;;;;;;5130614;27;20441;-60
2021/09/15 12:23:05;;;;;;;11.65;8.18;;;;;;;;;;5112144;27;20410;-63
2021/09/15 12:25:31;;;;;;;10.55;8.10;;;;;;;;;;5111828;27;20428;-71
2021/09/15 12:27:57;;;;;;;11.77;9.65;;;;;;;;;;5113098;27;20455;-71
2021/09/15 12:30:23;;;;;;;15.35;11.40;;;;;;;;;;5130836;27;20911;-58
2021/09/15 12:32:57;;;;;;;14.05;10.25;;;;;;;;;;5131268;27;20363;-56
2021/09/15 12:35:25;;;;;;;12.93;10.15;;;;;;;;;;5131733;27;20483;-56
2021/09/15 12:38:08;;;;;;;12.77;10.23;;;;;;;;;;5132374;27;20371;-59
2021/09/15 12:40:37;;;;;;;14.18;10.10;;;;;;;;;;5130514;27;20463;-54
2021/09/15 12:43:05;;;;;;;13.15;10.23;;;;;;;;;;5132145;27;20885;-59
2021/09/15 12:45:32;;;;;;;13.68;10.45;;;;;;;;;;5132258;27;20390;-58
2021/09/15 12:47:58;;;;;;;12.50;9.88;;;;;;;;;;5132429;27;20897;-59
2021/09/15 12:50:24;;;;;;;12.45;10.07;;;;;;;;;;5132312;27;20549;-58
2021/09/15 12:52:58;;;;;;;11.80;9.52;;;;;;;;;;5119991;27;20389;-58
2021/09/15 12:55:26;;;;;;;11.95;9.80;;;;;;;;;;5131442;27;20402;-59
2021/09/15 12:58:02;;;;;;;11.65;9.52;;;;;;;;;;5131984;27;20371;-57
2021/09/15 13:00:33;;;;;;;11.43;9.07;;;;;;;;;;5131863;27;20470;-58
2021/09/15 13:03:02;;;;;;;11.68;9.15;;;;;;;;;;5131327;27;20894;-59
2021/09/15 13:05:31;;;;;;;10.83;9.10;;;;;;;;;;5132058;27;20739;-62
2021/09/15 13:07:58;;;;;;;11.45;9.20;;;;;;;;;;5132018;27;20375;-60
2021/09/15 13:10:24;;;;;;;11.73;9.25;;;;;;;;;;5132460;27;20467;-59
2021/09/15 13:12:50;;;;;;;12.63;9.10;;;;;;;;;;5128049;27;20386;-58
2021/09/15 13:15:17;;;;;;;11.07;9.18;;;;;;;;;;5122076;27;20497;-57
2021/09/15 13:17:44;;;;;;;10.52;8.90;;;;;;;;;;5131918;27;20411;-58
2021/09/15 13:20:12;;;;;;;11.85;9.43;;;;;;;;;;5131634;27;20434;-57
2021/09/15 13:22:39;;;;;;;12.23;9.25;;;;;;;;;;5112126;27;20387;-58
2021/09/15 13:25:06;;;;;;;11.38;9.18;;;;;;;;;;5131369;27;20455;-60
2021/09/15 13:27:34;;;;;;;11.25;8.85;;;;;;;;;;5131380;27;20386;-61
2021/09/15 13:30:01;;;;;;;12.02;8.73;;;;;;;;;;5117598;27;20395;-57
2021/09/15 13:32:29;;;;;;;9.63;8.60;;;;;;;;;;5131470;27;20449;-57
2021/09/15 13:34:55;;;;;;;9.98;8.70;;;;;;;;;;5131372;27;20510;-60
2021/09/15 13:37:22;;;;;;;11.18;9.07;;;;;;;;;;5112215;27;20462;-58
2021/09/15 13:39:48;;;;;;;10.27;8.85;;;;;;;;;;5129101;27;21293;-62
2021/09/15 13:42:14;;;;;;;13.20;10.48;;;;;;;;;;5129539;27;20386;-61
2021/09/15 13:44:40;;;;;;;13.38;10.38;;;;;;;;;;5129057;27;20469;-61
2021/09/15 13:47:06;;;;;;;15.48;11.13;;;;;;;;;;5097329;27;20384;-61
2021/09/15 13:49:39;;;;;;;14.70;11.07;;;;;;;;;;5126534;27;20395;-61
2021/09/15 13:52:08;;;;;;;15.48;11.60;;;;;;;;;;5129419;27;20386;-61
2021/09/15 13:54:37;;;;;;;14.23;11.00;;;;;;;;;;5127773;27;20441;-64
2021/09/15 13:57:04;;;;;;;14.35;10.95;;;;;;;;;;5129627;27;20387;-66
2021/09/15 13:59:30;;;;;;;14.55;11.23;;;;;;;;;;5130196;27;20381;-67
2021/09/15 14:01:56;;;;;;;15.48;11.02;;;;;;;;;;5130204;27;20450;-62
2021/09/15 14:04:22;;;;;;;16.90;11.82;;;;;;;;;;5129775;27;20898;-61
2021/09/15 14:06:48;;;;;;;14.90;11.40;;;;;;;;;;5130055;27;20731;-61
2021/09/15 14:09:14;;;;;;;14.15;11.20;;;;;;;;;;5110215;27;20382;-62
2021/09/15 14:11:40;;;;;;;16.60;12.47;;;;;;;;;;5129482;27;20657;-58
2021/09/15 14:14:06;;;;;;;15.80;11.95;;;;;;;;;;5110167;27;20419;-61
2021/09/15 14:16:33;;;;;;;14.97;11.47;;;;;;;;;;5129242;27;20394;-60
2021/09/15 14:18:59;;;;;;;15.70;11.53;;;;;;;;;;5129526;27;20406;-63
2021/09/15 14:21:25;;;;;;;14.95;11.25;;;;;;;;;;5129486;27;20367;-62
2021/09/15 14:23:51;;;;;;;14.98;11.73;;;;;;;;;;5105901;28;20454;-60
2021/09/15 14:26:17;;;;;;;14.63;11.55;;;;;;;;;;5126661;27;20715;-62
2021/09/15 14:28:43;;;;;;;15.00;12.00;;;;;;;;;;5105571;27;20466;-61
2021/09/15 14:31:09;;;;;;;15.65;11.00;;;;;;;;;;5129004;27;20734;-64
2021/09/15 14:33:35;;;;;;;14.82;11.73;;;;;;;;;;5129322;27;20363;-60
2021/09/15 14:36:01;;;;;;;15.63;11.88;;;;;;;;;;5128839;27;20383;-61
2021/09/15 14:38:27;;;;;;;14.95;11.73;;;;;;;;;;5129662;27;20371;-62
2021/09/15 14:40:54;;;;;;;14.93;11.55;;;;;;;;;;5128451;27;20378;-59
2021/09/15 14:43:20;;;;;;;16.25;12.27;;;;;;;;;;5129151;27;20458;-60
2021/09/15 14:45:46;;;;;;;15.10;11.93;;;;;;;;;;5110243;27;20487;-60
2021/09/15 14:48:12;;;;;;;15.98;11.98;;;;;;;;;;5128744;27;22096;-60
2021/09/15 14:50:38;;;;;;;15.38;12.02;;;;;;;;;;5128665;27;20466;-60
2021/09/15 14:53:04;;;;;;;16.42;12.45;;;;;;;;;;5129370;27;20362;-64
2021/09/15 14:55:30;;;;;;;16.08;12.52;;;;;;;;;;5125273;27;20436;-60
2021/09/15 14:57:56;;;;;;;16.13;12.10;;;;;;;;;;5118395;27;20500;-65
2021/09/15 15:00:22;;;;;;;17.27;13.20;;;;;;;;;;5128093;27;20363;-66
2021/09/15 15:02:49;;;;;;;14.90;11.87;;;;;;;;;;5128320;27;20363;-65
2021/09/15 15:05:15;;;;;;;15.25;11.77;;;;;;;;;;5128363;27;20417;-65
2021/09/15 15:07:41;;;;;;;15.63;11.60;;;;;;;;;;5109466;27;20526;-64
2021/09/15 15:10:07;;;;;;;14.70;11.43;;;;;;;;;;5126609;27;20375;-66
2021/09/15 15:12:34;;;;;;;16.70;10.88;;;;;;;;;;5105377;27;20483;-67
2021/09/15 15:15:00;;;;;;;14.18;11.13;;;;;;;;;;5105095;28;20700;-69
2021/09/15 15:17:46;;;;;;;13.70;10.25;;;;;;;;;;5128018;28;20420;-68
2021/09/15 15:20:14;;;;;;;13.57;10.23;;;;;;;;;;5128195;28;20512;-68
2021/09/15 15:22:47;;;;;;;14.02;10.20;;;;;;;;;;5108630;28;20383;-70
2021/09/15 15:25:20;;;;;;;15.90;10.18;;;;;;;;;;5124710;28;20520;-72
2021/09/15 15:27:52;;;;;;;12.48;9.93;;;;;;;;;;5119401;28;20889;-70
2021/09/15 15:30:26;;;;;;;13.80;9.93;;;;;;;;;;5105152;28;20473;-71
2021/09/15 15:32:54;;;;;;;14.10;9.43;;;;;;;;;;5105087;28;20382;-72
2021/09/15 15:35:22;;;;;;;13.50;10.10;;;;;;;;;;5127281;27;20414;-68
2021/09/15 15:37:51;;;;;;;12.70;9.48;;;;;;;;;;5127358;27;20491;-69
2021/09/15 15:40:18;;;;;;;14.27;10.32;;;;;;;;;;5125990;27;20459;-65
2021/09/15 15:42:48;;;;;;;13.00;10.05;;;;;;;;;;5111913;27;20420;-70
2021/09/15 15:45:14;;;;;;;15.43;11.10;;;;;;;;;;5132052;27;20367;-72
2021/09/15 15:47:48;;;;;;;14.27;10.73;;;;;;;;;;5131701;27;20796;-73
2021/09/15 15:50:20;;;;;;;15.30;11.45;;;;;;;;;;5112938;27;20899;-72
2021/09/15 15:52:54;;;;;;;16.23;11.50;;;;;;;;;;5131763;27;20711;-72
2021/09/15 15:55:26;;;;;;;15.50;10.90;;;;;;;;;;5131611;27;20482;-73
2021/09/15 15:58:00;;;;;;;16.75;11.65;;;;;;;;;;5112964;27;20411;-73
2021/09/15 16:00:26;;;;;;;16.85;11.60;;;;;;;;;;5131798;27;20383;-73
2021/09/15 16:03:00;;;;;;;15.85;11.32;;;;;;;;;;5131329;27;20509;-65
2021/09/15 16:05:31;;;;;;;15.95;11.02;;;;;;;;;;5132217;27;20447;-60
2021/09/15 16:07:57;;;;;;;14.32;10.60;;;;;;;;;;5143848;27;20408;-68
2021/09/15 16:10:24;;;;;;;14.10;10.85;;;;;;;;;;5117194;27;20842;-60
2021/09/15 16:12:53;;;;;;;13.97;10.97;;;;;;;;;;5122091;27;20377;-59
2021/09/15 16:15:19;;;;;;;15.10;10.98;;;;;;;;;;5129117;27;20421;-60
2021/09/15 16:17:46;;;;;;;14.38;11.30;;;;;;;;;;5111476;27;20451;-60
2021/09/15 16:20:12;;;;;;;14.65;10.80;;;;;;;;;;5130749;27;20445;-60
2021/09/15 16:22:41;;;;;;;15.27;11.57;;;;;;;;;;5111784;27;20753;-60
2021/09/15 16:25:08;;;;;;;13.32;10.45;;;;;;;;;;5126447;27;20494;-60
2021/09/15 16:27:34;;;;;;;15.02;11.10;;;;;;;;;;5130348;27;20370;-60
2021/09/15 16:30:00;;;;;;;14.05;11.07;;;;;;;;;;5130046;27;20423;-60
2021/09/15 16:32:29;;;;;;;15.70;11.05;;;;;;;;;;5112762;27;20458;-60
2021/09/15 16:34:55;;;;;;;16.15;11.20;;;;;;;;;;5130301;27;20416;-60
2021/09/15 16:37:21;;;;;;;15.43;11.03;;;;;;;;;;5131896;27;20439;-60
2021/09/15 16:39:47;;;;;;;13.23;10.53;;;;;;;;;;5142536;27;20771;-60
2021/09/15 16:42:14;;;;;;;14.93;11.40;;;;;;;;;;5130337;27;20378;-60
2021/09/15 16:44:41;;;;;;;14.23;10.57;;;;;;;;;;5130005;27;20395;-61
2021/09/15 16:47:08;;;;;;;14.13;10.90;;;;;;;;;;5130092;27;20887;-58
2021/09/15 16:49:35;;;;;;;17.63;12.10;;;;;;;;;;5130817;27;20822;-60
2021/09/15 16:52:01;;;;;;;16.70;12.23;;;;;;;;;;5131228;27;20367;-61
2021/09/15 16:54:27;;;;;;;16.77;12.27;;;;;;;;;;5130632;27;20421;-60
2021/09/15 16:56:53;;;;;;;17.77;11.95;;;;;;;;;;5130329;27;20727;-60
2021/09/15 16:59:19;;;;;;;15.48;11.52;;;;;;;;;;5130582;27;20402;-60
2021/09/15 17:01:45;;;;;;;16.42;11.68;;;;;;;;;;5130344;27;20374;-60
2021/09/15 17:04:11;;;;;;;17.38;12.45;;;;;;;;;;5130922;27;20481;-60
2021/09/15 17:06:38;;;;;;;16.75;12.27;;;;;;;;;;5129876;27;20897;-60
2021/09/15 17:09:04;;;;;;;19.67;13.63;;;;;;;;;;5130916;27;20402;-60
2021/09/15 17:11:30;;;;;;;18.92;12.70;;;;;;;;;;5130513;27;20461;-60
2021/09/15 17:13:56;;;;;;;15.95;12.52;;;;;;;;;;5130561;27;20482;-60
2021/09/15 17:16:22;;;;;;;16.60;12.15;;;;;;;;;;5129540;27;20439;-60
2021/09/15 17:18:48;;;;;;;16.23;12.02;;;;;;;;;;5129977;27;20367;-60
2021/09/15 17:21:14;;;;;;;18.00;12.68;;;;;;;;;;5130741;27;20363;-59
2021/09/15 17:23:40;;;;;;;16.55;11.82;;;;;;;;;;5127275;27;20401;-59
2021/09/15 17:26:06;;;;;;;16.88;12.73;;;;;;;;;;5122309;27;20439;-59
2021/09/15 17:28:33;;;;;;;16.83;12.55;;;;;;;;;;5129911;27;20359;-60
2021/09/15 17:30:59;;;;;;;16.30;12.10;;;;;;;;;;5129473;27;20390;-59
2021/09/15 17:33:25;;;;;;;17.23;12.32;;;;;;;;;;5130047;27;20385;-60
2021/09/15 17:35:51;;;;;;;17.05;12.30;;;;;;;;;;5129214;27;20431;-60
2021/09/15 17:38:18;;;;;;;16.95;12.15;;;;;;;;;;5129528;27;20461;-60
2021/09/15 17:40:44;;;;;;;16.13;11.43;;;;;;;;;;5129705;27;20367;-60
2021/09/15 17:43:13;;;;;;;15.13;11.53;;;;;;;;;;5129547;27;20363;-60
2021/09/15 17:45:42;;;;;;;16.50;11.85;;;;;;;;;;5117000;27;20481;-60
2021/09/15 17:48:08;;;;;;;17.52;11.85;;;;;;;;;;5129069;27;20386;-60
2021/09/15 17:50:37;;;;;;;16.27;11.60;;;;;;;;;;5128665;27;20464;-60
2021/09/15 17:53:03;;;;;;;15.52;11.52;;;;;;;;;;5129542;27;20812;-60
2021/09/15 17:55:30;;;;;;;15.47;11.47;;;;;;;;;;5129264;27;20926;-60
2021/09/15 17:57:56;;;;;;;14.40;11.00;;;;;;;;;;5128722;27;20371;-60
2021/09/15 18:00:22;;;;;;;13.83;10.67;;;;;;;;;;5129119;27;20374;-60
2021/09/15 18:02:49;;;;;;;15.85;11.70;;;;;;;;;;5116238;27;20390;-61
2021/09/15 18:05:16;;;;;;;13.77;10.60;;;;;;;;;;5129580;27;20366;-60
2021/09/15 18:07:42;;;;;;;12.97;10.20;;;;;;;;;;5129741;27;20370;-60
2021/09/15 18:10:11;;;;;;;14.73;11.18;;;;;;;;;;5129365;27;20566;-60
2021/09/15 18:12:37;;;;;;;12.60;10.77;;;;;;;;;;5128664;27;20462;-60
2021/09/15 18:15:04;;;;;;;16.45;11.52;;;;;;;;;;5129087;27;20768;-60
2021/09/15 18:17:30;;;;;;;14.80;11.60;;;;;;;;;;5128586;27;20381;-60
2021/09/15 18:19:56;;;;;;;15.93;11.73;;;;;;;;;;5129232;27;20452;-60
2021/09/15 18:22:22;;;;;;;14.40;10.93;;;;;;;;;;5128890;27;20386;-61
2021/09/15 18:24:48;;;;;;;14.90;11.10;;;;;;;;;;5124335;27;20465;-60
2021/09/15 18:27:15;;;;;;;13.30;10.98;;;;;;;;;;5128165;27;20446;-60
2021/09/15 18:29:41;;;;;;;14.90;11.57;;;;;;;;;;5128983;27;20872;-60
2021/09/15 18:32:07;;;;;;;13.38;10.63;;;;;;;;;;5128166;27;20367;-60
2021/09/15 18:34:33;;;;;;;12.88;9.90;;;;;;;;;;5127612;27;20429;-60
2021/09/15 18:36:59;;;;;;;12.40;9.98;;;;;;;;;;5128044;27;20387;-60
2021/09/15 18:39:27;;;;;;;14.65;11.07;;;;;;;;;;5128639;27;20473;-59
2021/09/15 18:41:53;;;;;;;13.13;10.50;;;;;;;;;;5128480;27;20474;-60
2021/09/15 18:44:20;;;;;;;13.15;10.18;;;;;;;;;;5110485;27;20807;-59
2021/09/15 18:46:48;;;;;;;13.85;10.73;;;;;;;;;;5128390;27;20421;-59
2021/09/15 18:49:15;;;;;;;11.75;10.13;;;;;;;;;;5128319;27;20393;-61
2021/09/15 18:51:44;;;;;;;14.02;10.32;;;;;;;;;;5128849;27;20378;-61
2021/09/15 18:54:10;;;;;;;12.75;10.55;;;;;;;;;;5127849;27;20406;-61
2021/09/15 18:56:36;;;;;;;13.80;10.02;;;;;;;;;;5128798;27;20363;-61
2021/09/15 18:59:05;;;;;;;12.65;10.07;;;;;;;;;;5128000;27;20460;-61
2021/09/15 19:01:31;;;;;;;13.35;10.05;;;;;;;;;;5115231;27;20428;-61
2021/09/15 19:03:57;;;;;;;12.98;10.65;;;;;;;;;;5128268;27;20367;-61
2021/09/15 19:06:26;;;;;;;13.27;10.65;;;;;;;;;;5129041;27;20375;-61
2021/09/15 19:08:58;;;;;;;14.07;10.93;;;;;;;;;;5128141;27;20522;-61
2021/09/15 19:11:27;;;;;;;14.45;11.07;;;;;;;;;;5110306;28;20433;-60
2021/09/15 19:13:53;;;;;;;13.43;10.88;;;;;;;;;;5127156;27;20408;-61
2021/09/15 19:16:20;;;;;;;14.13;10.93;;;;;;;;;;5104811;27;20403;-60
2021/09/15 19:18:46;;;;;;;14.43;11.35;;;;;;;;;;5128298;27;20455;-61
2021/09/15 19:21:15;;;;;;;14.43;11.00;;;;;;;;;;5128301;27;20380;-60
2021/09/15 19:23:42;;;;;;;14.85;11.70;;;;;;;;;;5126958;27;20902;-60
2021/09/15 19:26:08;;;;;;;14.37;11.63;;;;;;;;;;5110365;28;20389;-60
2021/09/15 19:28:37;;;;;;;15.60;12.23;;;;;;;;;;5109918;28;20463;-60
2021/09/15 19:31:09;;;;;;;14.75;11.90;;;;;;;;;;5127757;27;20897;-60
2021/09/15 19:33:35;;;;;;;16.77;12.40;;;;;;;;;;5115023;28;20412;-60
2021/09/15 19:36:01;;;;;;;16.33;11.95;;;;;;;;;;5119149;27;20403;-60
2021/09/15 19:38:30;;;;;;;16.67;12.32;;;;;;;;;;5128237;27;20387;-60
2021/09/15 19:41:01;;;;;;;14.95;11.40;;;;;;;;;;5128349;28;20373;-60
2021/09/15 19:43:27;;;;;;;16.75;12.98;;;;;;;;;;5128286;27;20397;-60
2021/09/15 19:45:56;;;;;;;16.05;11.88;;;;;;;;;;5133431;27;20371;-60
2021/09/15 19:48:24;;;;;;;16.08;11.93;;;;;;;;;;5135737;27;20387;-60
2021/09/15 19:50:53;;;;;;;15.95;11.98;;;;;;;;;;5109041;28;20436;-61
2021/09/15 19:53:19;;;;;;;16.67;12.40;;;;;;;;;;5096193;28;20377;-60
2021/09/15 19:55:45;;;;;;;17.08;12.15;;;;;;;;;;5128189;27;20471;-60
2021/09/15 19:58:25;;;;;;;15.75;12.00;;;;;;;;;;5140781;27;20749;-60
2021/09/15 20:01:00;;;;;;;14.73;11.25;;;;;;;;;;5109887;28;20835;-61
2021/09/15 20:03:34;;;;;;;16.38;12.32;;;;;;;;;;5109687;28;20391;-60
2021/09/15 20:06:06;;;;;;;19.10;12.77;;;;;;;;;;5128072;28;20484;-59
2021/09/15 20:08:32;;;;;;;17.73;12.40;;;;;;;;;;5105630;28;20738;-69
2021/09/15 20:10:58;;;;;;;14.23;10.73;;;;;;;;;;5094637;28;20821;-68
2021/09/15 20:13:24;;;;;;;14.20;9.93;;;;;;;;;;5109813;28;20482;-70
2021/09/15 20:15:50;;;;;;;16.02;9.90;;;;;;;;;;5110417;28;20418;-68
2021/09/15 20:18:16;;;;;;;14.93;10.18;;;;;;;;;;5110180;28;20443;-68
2021/09/15 20:20:42;;;;;;;16.15;10.32;;;;;;;;;;5110421;27;20398;-67
2021/09/15 20:23:08;;;;;;;15.45;9.88;;;;;;;;;;5131922;27;20850;-67
2021/09/15 20:25:35;;;;;;;12.70;9.57;;;;;;;;;;5125873;27;20883;-69
2021/09/15 20:28:01;;;;;;;14.82;9.13;;;;;;;;;;5131779;27;20461;-68
2021/09/15 20:30:28;;;;;;;12.20;9.43;;;;;;;;;;5131749;27;20375;-56
2021/09/15 20:32:58;;;;;;;13.30;9.73;;;;;;;;;;5132149;27;20390;-57
2021/09/15 20:35:26;;;;;;;13.60;9.10;;;;;;;;;;5132277;27;20446;-57
2021/09/15 20:37:53;;;;;;;13.20;9.82;;;;;;;;;;5113324;27;20426;-57
2021/09/15 20:40:19;;;;;;;13.73;9.50;;;;;;;;;;5113538;27;20382;-57
2021/09/15 20:42:46;;;;;;;15.43;9.98;;;;;;;;;;5131449;27;20493;-59
2021/09/15 20:45:12;;;;;;;14.68;9.80;;;;;;;;;;5112723;27;20379;-58
2021/09/15 20:47:38;;;;;;;16.40;9.60;;;;;;;;;;5113179;27;20393;-56
2021/09/15 20:50:05;;;;;;;19.35;10.00;;;;;;;;;;5113776;27;20433;-55
2021/09/15 20:52:31;;;;;;;17.02;9.65;;;;;;;;;;5131742;27;20366;-52
2021/09/15 20:54:57;;;;;;;18.48;11.20;;;;;;;;;;5105560;28;20428;-54
2021/09/15 20:57:23;;;;;;;14.73;9.40;;;;;;;;;;5129744;27;20409;-55
2021/09/15 20:59:50;;;;;;;18.33;9.93;;;;;;;;;;5112306;27;20834;-56
2021/09/15 21:02:16;;;;;;;17.63;10.05;;;;;;;;;;5126408;27;20385;-57
2021/09/15 21:04:42;;;;;;;15.43;9.65;;;;;;;;;;5132113;27;20374;-57
2021/09/15 21:07:08;;;;;;;16.83;9.95;;;;;;;;;;5131378;27;20378;-56
2021/09/15 21:09:34;;;;;;;14.50;9.80;;;;;;;;;;5112172;27;20748;-60
2021/09/15 21:12:00;;;;;;;16.25;10.50;;;;;;;;;;5131238;27;20381;-56
2021/09/15 21:14:29;;;;;;;17.48;10.88;;;;;;;;;;5108173;28;20465;-59
2021/09/15 21:16:55;;;;;;;14.30;10.07;;;;;;;;;;5106309;28;20392;-56
2021/09/15 21:19:21;;;;;;;13.52;10.32;;;;;;;;;;5108452;28;20375;-56
2021/09/15 21:21:47;;;;;;;14.30;10.10;;;;;;;;;;5109293;28;20445;-59
2021/09/15 21:24:13;;;;;;;13.48;10.27;;;;;;;;;;5101609;28;20382;-56
2021/09/15 21:26:39;;;;;;;12.65;9.98;;;;;;;;;;5095074;28;20396;-54
2021/09/15 21:29:06;;;;;;;13.90;9.80;;;;;;;;;;5109720;28;20448;-54
2021/09/15 21:31:32;;;;;;;14.88;10.68;;;;;;;;;;5109822;28;20369;-55
2021/09/15 21:33:58;;;;;;;14.57;10.30;;;;;;;;;;5109020;28;20369;-58
2021/09/15 21:36:24;;;;;;;14.15;10.00;;;;;;;;;;5108290;28;20377;-57
2021/09/15 21:38:51;;;;;;;12.98;10.52;;;;;;;;;;5108245;28;20406;-57
2021/09/15 21:41:17;;;;;;;12.50;9.52;;;;;;;;;;5110172;28;20374;-54
2021/09/15 21:43:43;;;;;;;13.65;9.98;;;;;;;;;;5109480;28;20400;-55